Goodwill, Louisiana
Current Conditions -  °F | °C
As of 10:35 AM on Monday 26 Jan 2015 (Local Time) from KBQP Reporting Station
Clear Clear  
Wind Chill: 50°   Ceiling: Unl
Heat Index: 50°   Visibility: 10mi
Dew Point: 32°   Wind: 5mph
Humidity: 50%   Direction: 350°N
Pressure: 30.19"   Gusts: NA
Location:  32.8667°N, 91.4273°W
Report Text: KBQP 261635Z AUTO 35004KT 10SM CLR 10/00 A3019 RMK AO2 T01010002
Loading
Personal Weather Stations






























Interactive Weather Map New forecast layout! Learn more

10-Day Weather Forecast

Advertisements
Track Severe Weather on mobile